Main page
METAR-TAF:

METAR-TAF

Airports :

Cherokee County Airport

Jacksonville, Texas, United States

latitude: 31-52-09N, longitude: 095-13-02W, elevation: 676 ft

Current weather observation

The report was made 22 minutes ago, at 22:15 UTC
Wind 7 mph from the South
Temperature 72°F
Humidity 78%
Pressure 29.83 in. Hg
Visibility: 10 miles
Scattered clouds at a height of 1900 ft
Broken clouds at a height of 3000 ft
Overcast at a height of 3500 ft

METAR: KJSO 172215Z AUTO 19006KT 10SM SCT019 BKN030 OVC035 22/18 A2983 RMK AO2 T02250189

Time: 16:37 (22:37 UTC)


TAF: missing

Weather observations and forecasts of more than 4000 airports (METAR and TAF reports).

The available stations are represented by yellow and red dots on the map.

Hover mouse over dot to see the name of the station.

Then click to see weather observations and forecasts.

To change the map : click on the green buttons with a black cross to zoom in, on the green button with a dash to zoom out, or on the green arrows for adjacent maps.


METAR-TAF: